sensor_id;sensor_type;location;lat;lon;timestamp;P1;durP1;ratioP1;P2;durP2;ratioP2
45128;SDS011;35512;56.312;101.728;2022-10-31T00:01:37;0.50;;;0.50;;
45128;SDS011;35512;56.312;101.728;2022-10-31T00:04:07;0.40;;;0.40;;
45128;SDS011;35512;56.312;101.728;2022-10-31T00:06:36;0.47;;;0.47;;
45128;SDS011;35512;56.312;101.728;2022-10-31T00:09:05;0.50;;;0.50;;
45128;SDS011;35512;56.312;101.728;2022-10-31T00:11:33;0.50;;;0.50;;
45128;SDS011;35512;56.312;101.728;2022-10-31T00:14:02;0.50;;;0.50;;
45128;SDS011;35512;56.312;101.728;2022-10-31T00:16:32;0.50;;;0.50;;
45128;SDS011;35512;56.312;101.728;2022-10-31T00:19:02;0.50;;;0.50;;
45128;SDS011;35512;56.312;101.728;2022-10-31T00:21:34;0.50;;;0.50;;
45128;SDS011;35512;56.312;101.728;2022-10-31T00:24:05;0.50;;;0.50;;
45128;SDS011;35512;56.312;101.728;2022-10-31T00:26:35;0.50;;;0.50;;
45128;SDS011;35512;56.312;101.728;2022-10-31T00:29:03;0.50;;;0.50;;
45128;SDS011;35512;56.312;101.728;2022-10-31T00:31:32;0.50;;;0.50;;
45128;SDS011;35512;56.312;101.728;2022-10-31T00:34:01;0.50;;;0.50;;
45128;SDS011;35512;56.312;101.728;2022-10-31T00:36:31;0.50;;;0.50;;
45128;SDS011;35512;56.312;101.728;2022-10-31T00:39:01;0.50;;;0.50;;
45128;SDS011;35512;56.312;101.728;2022-10-31T00:41:30;0.50;;;0.50;;
45128;SDS011;35512;56.312;101.728;2022-10-31T00:43:59;0.60;;;0.60;;
45128;SDS011;35512;56.312;101.728;2022-10-31T00:46:28;0.50;;;0.50;;
45128;SDS011;35512;56.312;101.728;2022-10-31T00:48:57;0.50;;;0.50;;
45128;SDS011;35512;56.312;101.728;2022-10-31T00:51:26;0.50;;;0.50;;
45128;SDS011;35512;56.312;101.728;2022-10-31T00:53:55;0.50;;;0.50;;
45128;SDS011;35512;56.312;101.728;2022-10-31T00:56:24;0.50;;;0.50;;
45128;SDS011;35512;56.312;101.728;2022-10-31T00:58:53;0.50;;;0.50;;
45128;SDS011;35512;56.312;101.728;2022-10-31T01:01:23;0.50;;;0.50;;
45128;SDS011;35512;56.312;101.728;2022-10-31T01:03:52;0.50;;;0.50;;
45128;SDS011;35512;56.312;101.728;2022-10-31T01:06:21;0.50;;;0.50;;
45128;SDS011;35512;56.312;101.728;2022-10-31T01:08:50;0.50;;;0.50;;
45128;SDS011;35512;56.312;101.728;2022-10-31T01:11:20;0.50;;;0.50;;
45128;SDS011;35512;56.312;101.728;2022-10-31T01:13:51;0.50;;;0.50;;
45128;SDS011;35512;56.312;101.728;2022-10-31T01:16:23;0.50;;;0.50;;
45128;SDS011;35512;56.312;101.728;2022-10-31T01:18:53;0.40;;;0.40;;
45128;SDS011;35512;56.312;101.728;2022-10-31T01:21:22;0.50;;;0.50;;
45128;SDS011;35512;56.312;101.728;2022-10-31T01:23:57;0.50;;;0.50;;
45128;SDS011;35512;56.312;101.728;2022-10-31T01:26:27;0.50;;;0.50;;
45128;SDS011;35512;56.312;101.728;2022-10-31T01:29:02;0.50;;;0.50;;
45128;SDS011;35512;56.312;101.728;2022-10-31T01:31:36;0.50;;;0.50;;
45128;SDS011;35512;56.312;101.728;2022-10-31T01:34:07;0.50;;;0.50;;
45128;SDS011;35512;56.312;101.728;2022-10-31T01:36:40;0.50;;;0.50;;
45128;SDS011;35512;56.312;101.728;2022-10-31T01:39:10;0.50;;;0.50;;
45128;SDS011;35512;56.312;101.728;2022-10-31T01:41:42;0.50;;;0.50;;
45128;SDS011;35512;56.312;101.728;2022-10-31T01:46:54;0.40;;;0.40;;
45128;SDS011;35512;56.312;101.728;2022-10-31T01:52:41;0.50;;;0.50;;
45128;SDS011;35512;56.312;101.728;2022-10-31T01:55:21;0.43;;;0.43;;
45128;SDS011;35512;56.312;101.728;2022-10-31T01:57:58;0.40;;;0.40;;
45128;SDS011;35512;56.312;101.728;2022-10-31T02:00:33;0.40;;;0.40;;
45128;SDS011;35512;56.312;101.728;2022-10-31T02:03:02;0.40;;;0.40;;
45128;SDS011;35512;56.312;101.728;2022-10-31T02:05:31;0.40;;;0.40;;
45128;SDS011;35512;56.312;101.728;2022-10-31T02:08:06;0.40;;;0.40;;
45128;SDS011;35512;56.312;101.728;2022-10-31T02:10:42;0.40;;;0.40;;
45128;SDS011;35512;56.312;101.728;2022-10-31T02:13:12;0.40;;;0.40;;
45128;SDS011;35512;56.312;101.728;2022-10-31T02:15:48;0.40;;;0.40;;
45128;SDS011;35512;56.312;101.728;2022-10-31T02:18:20;0.40;;;0.40;;
45128;SDS011;35512;56.312;101.728;2022-10-31T02:20:57;0.40;;;0.40;;
45128;SDS011;35512;56.312;101.728;2022-10-31T02:41:01;0.50;;;0.50;;
45128;SDS011;35512;56.312;101.728;2022-10-31T02:44:06;0.50;;;0.50;;
45128;SDS011;35512;56.312;101.728;2022-10-31T02:49:18;0.40;;;0.40;;
45128;SDS011;35512;56.312;101.728;2022-10-31T02:52:18;0.30;;;0.30;;
45128;SDS011;35512;56.312;101.728;2022-10-31T02:54:47;0.45;;;0.45;;
45128;SDS011;35512;56.312;101.728;2022-10-31T02:57:17;0.40;;;0.40;;
45128;SDS011;35512;56.312;101.728;2022-10-31T03:00:03;0.30;;;0.30;;
45128;SDS011;35512;56.312;101.728;2022-10-31T03:10:55;0.40;;;0.40;;
45128;SDS011;35512;56.312;101.728;2022-10-31T03:13:34;0.40;;;0.40;;
45128;SDS011;35512;56.312;101.728;2022-10-31T03:16:09;0.38;;;0.38;;
45128;SDS011;35512;56.312;101.728;2022-10-31T03:18:42;0.30;;;0.30;;
45128;SDS011;35512;56.312;101.728;2022-10-31T03:21:22;0.30;;;0.30;;
45128;SDS011;35512;56.312;101.728;2022-10-31T03:24:16;0.30;;;0.30;;
45128;SDS011;35512;56.312;101.728;2022-10-31T03:26:47;0.30;;;0.30;;
45128;SDS011;35512;56.312;101.728;2022-10-31T03:29:22;0.30;;;0.30;;
45128;SDS011;35512;56.312;101.728;2022-10-31T03:31:56;0.30;;;0.30;;
45128;SDS011;35512;56.312;101.728;2022-10-31T03:34:29;0.30;;;0.30;;
45128;SDS011;35512;56.312;101.728;2022-10-31T03:37:02;0.30;;;0.30;;
45128;SDS011;35512;56.312;101.728;2022-10-31T03:39:33;0.30;;;0.30;;
45128;SDS011;35512;56.312;101.728;2022-10-31T03:42:06;0.30;;;0.30;;
45128;SDS011;35512;56.312;101.728;2022-10-31T03:44:40;0.30;;;0.30;;
45128;SDS011;35512;56.312;101.728;2022-10-31T03:47:14;0.30;;;0.30;;
45128;SDS011;35512;56.312;101.728;2022-10-31T03:49:43;0.30;;;0.30;;
45128;SDS011;35512;56.312;101.728;2022-10-31T03:54:43;0.30;;;0.30;;
45128;SDS011;35512;56.312;101.728;2022-10-31T04:00:13;0.32;;;0.32;;
45128;SDS011;35512;56.312;101.728;2022-10-31T04:02:47;0.40;;;0.40;;
45128;SDS011;35512;56.312;101.728;2022-10-31T04:05:43;0.40;;;0.40;;
45128;SDS011;35512;56.312;101.728;2022-10-31T04:08:15;0.40;;;0.40;;
45128;SDS011;35512;56.312;101.728;2022-10-31T04:10:48;0.40;;;0.40;;
45128;SDS011;35512;56.312;101.728;2022-10-31T04:13:20;0.40;;;0.40;;
45128;SDS011;35512;56.312;101.728;2022-10-31T04:16:03;0.30;;;0.30;;
45128;SDS011;35512;56.312;101.728;2022-10-31T04:18:33;0.40;;;0.40;;
45128;SDS011;35512;56.312;101.728;2022-10-31T04:21:04;0.32;;;0.32;;
45128;SDS011;35512;56.312;101.728;2022-10-31T04:23:35;0.40;;;0.40;;
45128;SDS011;35512;56.312;101.728;2022-10-31T04:26:15;0.40;;;0.40;;
45128;SDS011;35512;56.312;101.728;2022-10-31T04:28:44;0.40;;;0.40;;
45128;SDS011;35512;56.312;101.728;2022-10-31T04:31:12;0.40;;;0.40;;
45128;SDS011;35512;56.312;101.728;2022-10-31T04:33:44;0.50;;;0.50;;
45128;SDS011;35512;56.312;101.728;2022-10-31T04:36:13;0.30;;;0.30;;
45128;SDS011;35512;56.312;101.728;2022-10-31T04:38:42;0.40;;;0.40;;
45128;SDS011;35512;56.312;101.728;2022-10-31T04:41:31;0.40;;;0.40;;
45128;SDS011;35512;56.312;101.728;2022-10-31T04:44:10;0.30;;;0.30;;
45128;SDS011;35512;56.312;101.728;2022-10-31T04:46:39;0.40;;;0.40;;
45128;SDS011;35512;56.312;101.728;2022-10-31T04:49:09;0.40;;;0.40;;
45128;SDS011;35512;56.312;101.728;2022-10-31T04:51:37;0.50;;;0.50;;
45128;SDS011;35512;56.312;101.728;2022-10-31T04:54:08;0.50;;;0.50;;
45128;SDS011;35512;56.312;101.728;2022-10-31T04:56:57;0.50;;;0.50;;
45128;SDS011;35512;56.312;101.728;2022-10-31T04:59:27;0.50;;;0.50;;
45128;SDS011;35512;56.312;101.728;2022-10-31T05:01:58;0.50;;;0.50;;
45128;SDS011;35512;56.312;101.728;2022-10-31T05:04:42;0.50;;;0.50;;
45128;SDS011;35512;56.312;101.728;2022-10-31T05:07:11;0.50;;;0.50;;
45128;SDS011;35512;56.312;101.728;2022-10-31T05:09:39;0.40;;;0.40;;
45128;SDS011;35512;56.312;101.728;2022-10-31T05:12:08;0.50;;;0.50;;
45128;SDS011;35512;56.312;101.728;2022-10-31T05:15:12;0.50;;;0.50;;
45128;SDS011;35512;56.312;101.728;2022-10-31T05:17:59;0.50;;;0.50;;
45128;SDS011;35512;56.312;101.728;2022-10-31T05:20:30;0.40;;;0.40;;
45128;SDS011;35512;56.312;101.728;2022-10-31T05:23:06;0.40;;;0.40;;
45128;SDS011;35512;56.312;101.728;2022-10-31T05:25:36;0.40;;;0.40;;
45128;SDS011;35512;56.312;101.728;2022-10-31T05:28:05;0.40;;;0.40;;
45128;SDS011;35512;56.312;101.728;2022-10-31T05:30:34;0.30;;;0.30;;
45128;SDS011;35512;56.312;101.728;2022-10-31T05:33:06;0.40;;;0.40;;
45128;SDS011;35512;56.312;101.728;2022-10-31T05:35:55;0.30;;;0.30;;
45128;SDS011;35512;56.312;101.728;2022-10-31T05:38:33;0.30;;;0.30;;
45128;SDS011;35512;56.312;101.728;2022-10-31T05:41:11;0.30;;;0.30;;
45128;SDS011;35512;56.312;101.728;2022-10-31T05:43:44;0.30;;;0.30;;
45128;SDS011;35512;56.312;101.728;2022-10-31T05:46:15;0.30;;;0.30;;
45128;SDS011;35512;56.312;101.728;2022-10-31T05:49:13;0.30;;;0.30;;
45128;SDS011;35512;56.312;101.728;2022-10-31T05:52:00;0.30;;;0.30;;
45128;SDS011;35512;56.312;101.728;2022-10-31T05:54:41;0.30;;;0.30;;
45128;SDS011;35512;56.312;101.728;2022-10-31T05:57:10;0.30;;;0.30;;
45128;SDS011;35512;56.312;101.728;2022-10-31T05:59:39;0.30;;;0.30;;
45128;SDS011;35512;56.312;101.728;2022-10-31T06:02:08;0.30;;;0.30;;
45128;SDS011;35512;56.312;101.728;2022-10-31T06:04:56;0.30;;;0.30;;
45128;SDS011;35512;56.312;101.728;2022-10-31T06:07:26;0.30;;;0.30;;
45128;SDS011;35512;56.312;101.728;2022-10-31T06:09:55;0.30;;;0.30;;
45128;SDS011;35512;56.312;101.728;2022-10-31T06:12:24;0.30;;;0.30;;
45128;SDS011;35512;56.312;101.728;2022-10-31T06:15:16;0.30;;;0.30;;
45128;SDS011;35512;56.312;101.728;2022-10-31T06:18:01;0.30;;;0.30;;
45128;SDS011;35512;56.312;101.728;2022-10-31T06:20:35;0.30;;;0.30;;
45128;SDS011;35512;56.312;101.728;2022-10-31T06:23:05;0.30;;;0.30;;
45128;SDS011;35512;56.312;101.728;2022-10-31T06:25:34;0.30;;;0.30;;
45128;SDS011;35512;56.312;101.728;2022-10-31T06:28:05;0.40;;;0.40;;
45128;SDS011;35512;56.312;101.728;2022-10-31T06:31:00;0.30;;;0.30;;
45128;SDS011;35512;56.312;101.728;2022-10-31T06:33:30;0.40;;;0.40;;
45128;SDS011;35512;56.312;101.728;2022-10-31T06:36:01;0.40;;;0.40;;
45128;SDS011;35512;56.312;101.728;2022-10-31T06:38:31;0.45;;;0.45;;
45128;SDS011;35512;56.312;101.728;2022-10-31T06:41:04;0.40;;;0.40;;
45128;SDS011;35512;56.312;101.728;2022-10-31T06:43:47;0.40;;;0.40;;
45128;SDS011;35512;56.312;101.728;2022-10-31T06:46:36;0.30;;;0.30;;
45128;SDS011;35512;56.312;101.728;2022-10-31T06:49:25;0.30;;;0.30;;
45128;SDS011;35512;56.312;101.728;2022-10-31T06:51:59;0.30;;;0.30;;
45128;SDS011;35512;56.312;101.728;2022-10-31T06:54:28;0.30;;;0.30;;
45128;SDS011;35512;56.312;101.728;2022-10-31T06:56:57;0.30;;;0.30;;
45128;SDS011;35512;56.312;101.728;2022-10-31T06:59:28;0.30;;;0.30;;
45128;SDS011;35512;56.312;101.728;2022-10-31T07:02:26;0.40;;;0.40;;
45128;SDS011;35512;56.312;101.728;2022-10-31T07:04:56;0.30;;;0.30;;
45128;SDS011;35512;56.312;101.728;2022-10-31T07:07:25;0.30;;;0.30;;
45128;SDS011;35512;56.312;101.728;2022-10-31T07:09:54;0.30;;;0.30;;
45128;SDS011;35512;56.312;101.728;2022-10-31T07:12:39;0.30;;;0.30;;
45128;SDS011;35512;56.312;101.728;2022-10-31T07:15:08;0.30;;;0.30;;
45128;SDS011;35512;56.312;101.728;2022-10-31T07:17:37;0.30;;;0.30;;
45128;SDS011;35512;56.312;101.728;2022-10-31T07:20:08;0.40;;;0.40;;
45128;SDS011;35512;56.312;101.728;2022-10-31T07:22:37;0.30;;;0.30;;
45128;SDS011;35512;56.312;101.728;2022-10-31T07:25:08;0.40;;;0.40;;
45128;SDS011;35512;56.312;101.728;2022-10-31T07:27:56;0.40;;;0.40;;
45128;SDS011;35512;56.312;101.728;2022-10-31T07:30:26;0.40;;;0.40;;
45128;SDS011;35512;56.312;101.728;2022-10-31T07:32:56;0.30;;;0.30;;
45128;SDS011;35512;56.312;101.728;2022-10-31T07:35:42;0.40;;;0.40;;
45128;SDS011;35512;56.312;101.728;2022-10-31T07:38:13;0.50;;;0.50;;
45128;SDS011;35512;56.312;101.728;2022-10-31T07:40:48;0.40;;;0.40;;
45128;SDS011;35512;56.312;101.728;2022-10-31T07:43:19;0.50;;;0.50;;
45128;SDS011;35512;56.312;101.728;2022-10-31T07:46:07;0.40;;;0.40;;
45128;SDS011;35512;56.312;101.728;2022-10-31T07:48:42;0.40;;;0.40;;
45128;SDS011;35512;56.312;101.728;2022-10-31T07:51:29;0.40;;;0.40;;
45128;SDS011;35512;56.312;101.728;2022-10-31T07:54:17;0.40;;;0.40;;
45128;SDS011;35512;56.312;101.728;2022-10-31T07:56:46;0.40;;;0.40;;
45128;SDS011;35512;56.312;101.728;2022-10-31T07:59:16;0.30;;;0.30;;
45128;SDS011;35512;56.312;101.728;2022-10-31T08:01:45;0.30;;;0.30;;
45128;SDS011;35512;56.312;101.728;2022-10-31T08:04:37;0.30;;;0.30;;
45128;SDS011;35512;56.312;101.728;2022-10-31T08:07:25;0.40;;;0.40;;
45128;SDS011;35512;56.312;101.728;2022-10-31T08:10:00;0.30;;;0.30;;
45128;SDS011;35512;56.312;101.728;2022-10-31T08:12:31;0.40;;;0.40;;
45128;SDS011;35512;56.312;101.728;2022-10-31T08:15:00;0.40;;;0.40;;
45128;SDS011;35512;56.312;101.728;2022-10-31T08:17:30;0.30;;;0.30;;
45128;SDS011;35512;56.312;101.728;2022-10-31T08:20:05;0.30;;;0.30;;
45128;SDS011;35512;56.312;101.728;2022-10-31T08:22:42;0.30;;;0.30;;
45128;SDS011;35512;56.312;101.728;2022-10-31T08:25:11;0.40;;;0.40;;
45128;SDS011;35512;56.312;101.728;2022-10-31T08:27:40;0.30;;;0.30;;
45128;SDS011;35512;56.312;101.728;2022-10-31T08:30:17;0.38;;;0.38;;
45128;SDS011;35512;56.312;101.728;2022-10-31T08:33:12;0.30;;;0.30;;
45128;SDS011;35512;56.312;101.728;2022-10-31T08:36:08;0.30;;;0.30;;
45128;SDS011;35512;56.312;101.728;2022-10-31T08:38:55;0.30;;;0.30;;
45128;SDS011;35512;56.312;101.728;2022-10-31T08:41:29;0.30;;;0.30;;
45128;SDS011;35512;56.312;101.728;2022-10-31T08:44:00;0.30;;;0.30;;
45128;SDS011;35512;56.312;101.728;2022-10-31T08:46:29;0.30;;;0.30;;
45128;SDS011;35512;56.312;101.728;2022-10-31T08:48:58;0.30;;;0.30;;
45128;SDS011;35512;56.312;101.728;2022-10-31T08:51:28;0.30;;;0.30;;
45128;SDS011;35512;56.312;101.728;2022-10-31T08:53:57;0.40;;;0.40;;
45128;SDS011;35512;56.312;101.728;2022-10-31T08:56:44;0.30;;;0.30;;
45128;SDS011;35512;56.312;101.728;2022-10-31T08:59:30;0.30;;;0.30;;
45128;SDS011;35512;56.312;101.728;2022-10-31T09:02:19;0.30;;;0.30;;
45128;SDS011;35512;56.312;101.728;2022-10-31T09:04:52;0.40;;;0.40;;
45128;SDS011;35512;56.312;101.728;2022-10-31T09:07:21;0.40;;;0.40;;
45128;SDS011;35512;56.312;101.728;2022-10-31T09:09:50;0.40;;;0.40;;
45128;SDS011;35512;56.312;101.728;2022-10-31T09:12:19;0.40;;;0.40;;
45128;SDS011;35512;56.312;101.728;2022-10-31T09:15:08;0.40;;;0.40;;
45128;SDS011;35512;56.312;101.728;2022-10-31T09:17:48;0.40;;;0.40;;
45128;SDS011;35512;56.312;101.728;2022-10-31T09:20:27;0.40;;;0.40;;
45128;SDS011;35512;56.312;101.728;2022-10-31T09:22:58;0.40;;;0.40;;
45128;SDS011;35512;56.312;101.728;2022-10-31T09:25:29;0.40;;;0.40;;
45128;SDS011;35512;56.312;101.728;2022-10-31T09:28:19;0.40;;;0.40;;
45128;SDS011;35512;56.312;101.728;2022-10-31T09:30:50;0.40;;;0.40;;
45128;SDS011;35512;56.312;101.728;2022-10-31T09:33:38;0.40;;;0.40;;
45128;SDS011;35512;56.312;101.728;2022-10-31T09:36:27;0.40;;;0.40;;
45128;SDS011;35512;56.312;101.728;2022-10-31T09:38:57;0.50;;;0.50;;
45128;SDS011;35512;56.312;101.728;2022-10-31T09:44:34;0.50;;;0.50;;
45128;SDS011;35512;56.312;101.728;2022-10-31T09:47:37;0.50;;;0.50;;
45128;SDS011;35512;56.312;101.728;2022-10-31T09:50:41;0.50;;;0.50;;
45128;SDS011;35512;56.312;101.728;2022-10-31T09:53:35;0.50;;;0.50;;
45128;SDS011;35512;56.312;101.728;2022-10-31T09:56:14;0.50;;;0.50;;
45128;SDS011;35512;56.312;101.728;2022-10-31T09:58:50;0.40;;;0.40;;
45128;SDS011;35512;56.312;101.728;2022-10-31T10:01:33;0.50;;;0.50;;
45128;SDS011;35512;56.312;101.728;2022-10-31T10:10:16;0.50;;;0.50;;
45128;SDS011;35512;56.312;101.728;2022-10-31T10:18:46;0.50;;;0.50;;
45128;SDS011;35512;56.312;101.728;2022-10-31T10:27:10;0.50;;;0.50;;
45128;SDS011;35512;56.312;101.728;2022-10-31T10:32:31;0.60;;;0.60;;
45128;SDS011;35512;56.312;101.728;2022-10-31T10:35:17;0.50;;;0.50;;
45128;SDS011;35512;56.312;101.728;2022-10-31T10:37:52;0.52;;;0.52;;
45128;SDS011;35512;56.312;101.728;2022-10-31T10:40:26;0.57;;;0.57;;
45128;SDS011;35512;56.312;101.728;2022-10-31T11:00:18;0.60;;;0.60;;
45128;SDS011;35512;56.312;101.728;2022-10-31T11:02:50;0.60;;;0.60;;
45128;SDS011;35512;56.312;101.728;2022-10-31T11:05:29;0.60;;;0.60;;
45128;SDS011;35512;56.312;101.728;2022-10-31T11:08:07;0.60;;;0.60;;
45128;SDS011;35512;56.312;101.728;2022-10-31T11:10:36;0.50;;;0.50;;
45128;SDS011;35512;56.312;101.728;2022-10-31T11:15:51;0.60;;;0.60;;
45128;SDS011;35512;56.312;101.728;2022-10-31T11:18:22;0.60;;;0.60;;
45128;SDS011;35512;56.312;101.728;2022-10-31T11:20:57;0.60;;;0.60;;
45128;SDS011;35512;56.312;101.728;2022-10-31T11:23:28;0.60;;;0.60;;
45128;SDS011;35512;56.312;101.728;2022-10-31T11:26:02;0.60;;;0.60;;
45128;SDS011;35512;56.312;101.728;2022-10-31T11:28:33;0.60;;;0.60;;
45128;SDS011;35512;56.312;101.728;2022-10-31T11:31:07;0.60;;;0.60;;
45128;SDS011;35512;56.312;101.728;2022-10-31T11:33:57;0.60;;;0.60;;
45128;SDS011;35512;56.312;101.728;2022-10-31T11:36:36;0.60;;;0.60;;
45128;SDS011;35512;56.312;101.728;2022-10-31T11:39:13;0.60;;;0.60;;
45128;SDS011;35512;56.312;101.728;2022-10-31T11:41:47;0.50;;;0.50;;
45128;SDS011;35512;56.312;101.728;2022-10-31T11:46:56;0.50;;;0.50;;
45128;SDS011;35512;56.312;101.728;2022-10-31T11:52:06;0.60;;;0.60;;
45128;SDS011;35512;56.312;101.728;2022-10-31T11:54:44;0.60;;;0.60;;
45128;SDS011;35512;56.312;101.728;2022-10-31T12:00:04;0.60;;;0.60;;
45128;SDS011;35512;56.312;101.728;2022-10-31T12:02:49;0.60;;;0.60;;
45128;SDS011;35512;56.312;101.728;2022-10-31T12:05:26;0.60;;;0.60;;
45128;SDS011;35512;56.312;101.728;2022-10-31T12:08:03;0.60;;;0.60;;
45128;SDS011;35512;56.312;101.728;2022-10-31T12:10:42;0.60;;;0.60;;
45128;SDS011;35512;56.312;101.728;2022-10-31T12:24:14;0.60;;;0.60;;
45128;SDS011;35512;56.312;101.728;2022-10-31T12:29:26;0.60;;;0.60;;
45128;SDS011;35512;56.312;101.728;2022-10-31T12:37:58;0.60;;;0.60;;
45128;SDS011;35512;56.312;101.728;2022-10-31T12:45:57;0.60;;;0.60;;
45128;SDS011;35512;56.312;101.728;2022-10-31T12:51:34;0.60;;;0.60;;
45128;SDS011;35512;56.312;101.728;2022-10-31T12:54:29;0.52;;;0.52;;
45128;SDS011;35512;56.312;101.728;2022-10-31T12:57:27;0.50;;;0.50;;
45128;SDS011;35512;56.312;101.728;2022-10-31T13:00:03;0.50;;;0.50;;
45128;SDS011;35512;56.312;101.728;2022-10-31T13:02:35;0.60;;;0.60;;
45128;SDS011;35512;56.312;101.728;2022-10-31T13:05:29;0.50;;;0.50;;
45128;SDS011;35512;56.312;101.728;2022-10-31T13:11:15;0.60;;;0.60;;
45128;SDS011;35512;56.312;101.728;2022-10-31T13:13:56;0.60;;;0.60;;
45128;SDS011;35512;56.312;101.728;2022-10-31T13:16:30;0.60;;;0.60;;
45128;SDS011;35512;56.312;101.728;2022-10-31T13:19:21;0.60;;;0.60;;
45128;SDS011;35512;56.312;101.728;2022-10-31T13:27:44;0.60;;;0.60;;
45128;SDS011;35512;56.312;101.728;2022-10-31T13:30:18;0.60;;;0.60;;
45128;SDS011;35512;56.312;101.728;2022-10-31T13:32:50;0.60;;;0.60;;
45128;SDS011;35512;56.312;101.728;2022-10-31T13:38:18;0.60;;;0.60;;
45128;SDS011;35512;56.312;101.728;2022-10-31T13:40:59;0.50;;;0.50;;
45128;SDS011;35512;56.312;101.728;2022-10-31T13:49:24;0.60;;;0.60;;
45128;SDS011;35512;56.312;101.728;2022-10-31T13:52:24;0.60;;;0.60;;
45128;SDS011;35512;56.312;101.728;2022-10-31T13:54:54;0.60;;;0.60;;
45128;SDS011;35512;56.312;101.728;2022-10-31T13:57:37;0.50;;;0.50;;
45128;SDS011;35512;56.312;101.728;2022-10-31T14:02:49;0.60;;;0.60;;
45128;SDS011;35512;56.312;101.728;2022-10-31T14:05:24;0.60;;;0.60;;
45128;SDS011;35512;56.312;101.728;2022-10-31T14:07:54;0.60;;;0.60;;
45128;SDS011;35512;56.312;101.728;2022-10-31T14:15:56;0.50;;;0.50;;
45128;SDS011;35512;56.312;101.728;2022-10-31T14:18:33;0.60;;;0.60;;
45128;SDS011;35512;56.312;101.728;2022-10-31T14:23:55;0.60;;;0.60;;
45128;SDS011;35512;56.312;101.728;2022-10-31T14:28:56;0.60;;;0.60;;
45128;SDS011;35512;56.312;101.728;2022-10-31T14:39:54;0.60;;;0.60;;
45128;SDS011;35512;56.312;101.728;2022-10-31T14:45:31;0.50;;;0.50;;
45128;SDS011;35512;56.312;101.728;2022-10-31T14:50:48;0.60;;;0.60;;
45128;SDS011;35512;56.312;101.728;2022-10-31T14:53:22;0.60;;;0.60;;
45128;SDS011;35512;56.312;101.728;2022-10-31T14:56:09;0.60;;;0.60;;
45128;SDS011;35512;56.312;101.728;2022-10-31T14:58:44;0.60;;;0.60;;
45128;SDS011;35512;56.312;101.728;2022-10-31T15:01:22;0.60;;;0.60;;
45128;SDS011;35512;56.312;101.728;2022-10-31T15:04:02;0.60;;;0.60;;
45128;SDS011;35512;56.312;101.728;2022-10-31T15:07:02;0.60;;;0.60;;
45128;SDS011;35512;56.312;101.728;2022-10-31T15:09:33;0.50;;;0.50;;
45128;SDS011;35512;56.312;101.728;2022-10-31T15:12:23;0.55;;;0.55;;
45128;SDS011;35512;56.312;101.728;2022-10-31T15:14:57;0.60;;;0.60;;
45128;SDS011;35512;56.312;101.728;2022-10-31T15:17:29;0.60;;;0.60;;
45128;SDS011;35512;56.312;101.728;2022-10-31T15:19:58;0.60;;;0.60;;
45128;SDS011;35512;56.312;101.728;2022-10-31T15:22:27;0.52;;;0.52;;
45128;SDS011;35512;56.312;101.728;2022-10-31T15:24:58;0.60;;;0.60;;
45128;SDS011;35512;56.312;101.728;2022-10-31T15:27:29;0.50;;;0.50;;
45128;SDS011;35512;56.312;101.728;2022-10-31T15:29:58;0.57;;;0.57;;
45128;SDS011;35512;56.312;101.728;2022-10-31T15:32:27;0.60;;;0.60;;
45128;SDS011;35512;56.312;101.728;2022-10-31T15:34:57;0.50;;;0.50;;
45128;SDS011;35512;56.312;101.728;2022-10-31T15:37:26;0.60;;;0.60;;
45128;SDS011;35512;56.312;101.728;2022-10-31T15:40:05;0.60;;;0.60;;
45128;SDS011;35512;56.312;101.728;2022-10-31T15:42:40;0.60;;;0.60;;
45128;SDS011;35512;56.312;101.728;2022-10-31T15:47:39;0.60;;;0.60;;
45128;SDS011;35512;56.312;101.728;2022-10-31T15:50:31;0.60;;;0.60;;
45128;SDS011;35512;56.312;101.728;2022-10-31T15:53:18;0.60;;;0.60;;
45128;SDS011;35512;56.312;101.728;2022-10-31T15:58:24;0.60;;;0.60;;
45128;SDS011;35512;56.312;101.728;2022-10-31T16:03:35;0.60;;;0.60;;
45128;SDS011;35512;56.312;101.728;2022-10-31T16:06:04;0.50;;;0.50;;
45128;SDS011;35512;56.312;101.728;2022-10-31T16:08:34;0.60;;;0.60;;
45128;SDS011;35512;56.312;101.728;2022-10-31T16:13:36;0.50;;;0.50;;
45128;SDS011;35512;56.312;101.728;2022-10-31T16:16:20;0.50;;;0.50;;
45128;SDS011;35512;56.312;101.728;2022-10-31T16:23:57;0.55;;;0.55;;
45128;SDS011;35512;56.312;101.728;2022-10-31T16:26:33;0.60;;;0.60;;
45128;SDS011;35512;56.312;101.728;2022-10-31T16:29:02;0.60;;;0.60;;
45128;SDS011;35512;56.312;101.728;2022-10-31T16:31:38;0.60;;;0.60;;
45128;SDS011;35512;56.312;101.728;2022-10-31T16:34:13;0.57;;;0.57;;
45128;SDS011;35512;56.312;101.728;2022-10-31T16:36:53;0.52;;;0.52;;
45128;SDS011;35512;56.312;101.728;2022-10-31T16:39:22;0.50;;;0.50;;
45128;SDS011;35512;56.312;101.728;2022-10-31T16:41:54;0.60;;;0.60;;
45128;SDS011;35512;56.312;101.728;2022-10-31T16:44:25;0.50;;;0.50;;
45128;SDS011;35512;56.312;101.728;2022-10-31T16:47:08;0.50;;;0.50;;
45128;SDS011;35512;56.312;101.728;2022-10-31T16:49:40;0.60;;;0.60;;
45128;SDS011;35512;56.312;101.728;2022-10-31T16:52:10;0.50;;;0.50;;
45128;SDS011;35512;56.312;101.728;2022-10-31T16:54:39;0.60;;;0.60;;
45128;SDS011;35512;56.312;101.728;2022-10-31T16:57:11;0.60;;;0.60;;
45128;SDS011;35512;56.312;101.728;2022-10-31T16:59:44;0.60;;;0.60;;
45128;SDS011;35512;56.312;101.728;2022-10-31T17:02:16;0.50;;;0.50;;
45128;SDS011;35512;56.312;101.728;2022-10-31T17:04:47;0.60;;;0.60;;
45128;SDS011;35512;56.312;101.728;2022-10-31T17:07:22;0.55;;;0.55;;
45128;SDS011;35512;56.312;101.728;2022-10-31T17:09:50;0.50;;;0.50;;
45128;SDS011;35512;56.312;101.728;2022-10-31T17:12:20;0.50;;;0.50;;
45128;SDS011;35512;56.312;101.728;2022-10-31T17:14:53;0.60;;;0.60;;
45128;SDS011;35512;56.312;101.728;2022-10-31T17:17:22;0.60;;;0.60;;
45128;SDS011;35512;56.312;101.728;2022-10-31T17:19:50;0.52;;;0.52;;
45128;SDS011;35512;56.312;101.728;2022-10-31T17:22:19;0.55;;;0.55;;
45128;SDS011;35512;56.312;101.728;2022-10-31T17:24:48;0.60;;;0.60;;
45128;SDS011;35512;56.312;101.728;2022-10-31T17:27:17;0.60;;;0.60;;
45128;SDS011;35512;56.312;101.728;2022-10-31T17:29:46;0.60;;;0.60;;
45128;SDS011;35512;56.312;101.728;2022-10-31T17:32:14;0.60;;;0.60;;
45128;SDS011;35512;56.312;101.728;2022-10-31T17:34:44;0.60;;;0.60;;
45128;SDS011;35512;56.312;101.728;2022-10-31T17:37:13;0.60;;;0.60;;
45128;SDS011;35512;56.312;101.728;2022-10-31T17:39:42;0.55;;;0.55;;
45128;SDS011;35512;56.312;101.728;2022-10-31T17:42:11;0.55;;;0.55;;
45128;SDS011;35512;56.312;101.728;2022-10-31T17:44:40;0.50;;;0.50;;
45128;SDS011;35512;56.312;101.728;2022-10-31T17:47:09;0.60;;;0.60;;
45128;SDS011;35512;56.312;101.728;2022-10-31T17:49:37;0.52;;;0.52;;
45128;SDS011;35512;56.312;101.728;2022-10-31T17:52:06;0.50;;;0.50;;
45128;SDS011;35512;56.312;101.728;2022-10-31T17:54:35;0.50;;;0.50;;
45128;SDS011;35512;56.312;101.728;2022-10-31T17:57:04;0.50;;;0.50;;
45128;SDS011;35512;56.312;101.728;2022-10-31T17:59:33;0.50;;;0.50;;
45128;SDS011;35512;56.312;101.728;2022-10-31T18:02:02;0.60;;;0.60;;
45128;SDS011;35512;56.312;101.728;2022-10-31T18:04:36;0.50;;;0.50;;
45128;SDS011;35512;56.312;101.728;2022-10-31T18:07:07;0.60;;;0.60;;